Time;durP1;ratioP1;P1;durP2;ratioP2;P2;SDS_P1;SDS_P2;PMS_P1;PMS_P2;Temp;Humidity;BMP_temperature;BMP_pressure;BME280_temperature;BME280_humidity;BME280_pressure;Samples;Min_cycle;Max_cycle;Signal;HPM_P1;HPM_P2
2022/08/28 00:02:08;;;;;;;;;;;;;;;;;;5032048;28;1364;-73
2022/08/28 00:04:34;;;;;;;;;;;;;;;;;;5041954;28;1263;-73
2022/08/28 00:06:59;;;;;;;;;;;;;;;;;;5042318;28;826;-73
2022/08/28 00:09:25;;;;;;;;;;;;;;;;;;5042214;28;1902;-73
2022/08/28 00:11:50;;;;;;;;;;;;;;;;;;5041323;28;1598;-73
2022/08/28 00:14:19;;;;;;;;;;;;;;;;;;5041945;28;1574;-73
2022/08/28 00:16:45;;;;;;;;;;;;;;;;;;5047352;28;1539;-73
2022/08/28 00:19:10;;;;;;;;;;;;;;;;;;5042014;28;1586;-73
2022/08/28 00:21:36;;;;;;;;;;;;;;;;;;5042013;28;946;-73
2022/08/28 00:24:01;;;;;;;;;;;;;;;;;;5042321;28;925;-73
2022/08/28 00:29:10;;;;;;;;;;;;;;;;;;5040043;28;1898;-73
2022/08/28 00:31:38;;;;;;;;;;;;;;;;;;5047430;28;1582;-73
2022/08/28 00:34:04;;;;;;;;;;;;;;;;;;5040925;28;1550;-74
2022/08/28 00:36:29;;;;;;;;;;;;;;;;;;5041631;28;1165;-73
2022/08/28 00:38:55;;;;;;;;;;;;;;;;;;5041659;28;811;-73
2022/08/28 00:41:20;;;;;;;;;;;;;;;;;;5040879;28;1610;-73
2022/08/28 00:43:46;;;;;;;;;;;;;;;;;;5041773;28;1157;-73
2022/08/28 00:46:19;;;;;;;;;;;;;;;;;;5046645;28;1622;-73
2022/08/28 00:48:45;;;;;;;;;;;;;;;;;;5041444;28;2035;-73
2022/08/28 00:53:56;;;;;;;;;;;;;;;;;;5042066;28;605;-72
2022/08/28 00:56:21;;;;;;;;;;;;;;;;;;5040319;28;1543;-73
2022/08/28 00:58:48;;;;;;;;;;;;;;;;;;5044965;28;1270;-72
2022/08/28 01:01:13;;;;;;;;;;;;;;;;;;5047949;28;1234;-72
2022/08/28 01:03:39;;;;;;;;;;;;;;;;;;5040795;28;1460;-72
2022/08/28 01:06:05;;;;;;;;;;;;;;;;;;5041277;28;1292;-73
2022/08/28 01:08:31;;;;;;;;;;;;;;;;;;5040304;28;1914;-72
2022/08/28 01:10:58;;;;;;;;;;;;;;;;;;5044248;28;1261;-72
2022/08/28 01:13:24;;;;;;;;;;;;;;;;;;5041272;28;1235;-73
2022/08/28 01:15:50;;;;;;;;;;;;;;;;;;5045548;28;1639;-73
2022/08/28 01:18:16;;;;;;;;;;;;;;;;;;5042074;28;1221;-73
2022/08/28 01:20:44;;;;;;;;;;;;;;;;;;5041123;28;1056;-73
2022/08/28 01:23:34;;;;;;;;;;;;;;;;;;5050106;28;1610;-73
2022/08/28 01:25:59;;;;;;;;;;;;;;;;;;5037823;28;1348;-73
2022/08/28 01:28:24;;;;;;;;;;;;;;;;;;5046082;28;1969;-73
2022/08/28 01:30:50;;;;;;;;;;;;;;;;;;5045561;28;1443;-73
2022/08/28 01:33:15;;;;;;;;;;;;;;;;;;5041643;28;1355;-74
2022/08/28 01:35:42;;;;;;;;;;;;;;;;;;5040660;28;1561;-74
2022/08/28 01:38:07;;;;;;;;;;;;;;;;;;5041065;28;826;-74
2022/08/28 01:40:35;;;;;;;;;;;;;;;;;;5040899;28;1044;-74
2022/08/28 01:43:18;;;;;;;;;;;;;;;;;;5046678;28;1639;-74
2022/08/28 01:45:44;;;;;;;;;;;;;;;;;;5042374;28;1400;-74
2022/08/28 01:48:10;;;;;;;;;;;;;;;;;;5050382;28;1969;-74
2022/08/28 01:50:36;;;;;;;;;;;;;;;;;;5030225;28;1929;-74
2022/08/28 01:53:03;;;;;;;;;;;;;;;;;;5044468;28;818;-73
2022/08/28 01:55:28;;;;;;;;;;;;;;;;;;5044081;28;1203;-73
2022/08/28 01:57:54;;;;;;;;;;;;;;;;;;5043142;28;1661;-72
2022/08/28 02:00:20;;;;;;;;;;;;;;;;;;5044211;28;1206;-73
2022/08/28 02:02:47;;;;;;;;;;;;;;;;;;5030677;28;1245;-73
2022/08/28 02:05:12;;;;;;;;;;;;;;;;;;5049862;28;1283;-73
2022/08/28 02:07:38;;;;;;;;;;;;;;;;;;5043922;28;1145;-73
2022/08/28 02:10:04;;;;;;;;;;;;;;;;;;5043875;28;1965;-73
2022/08/28 02:12:30;;;;;;;;;;;;;;;;;;5025506;28;1519;-73
2022/08/28 02:14:55;;;;;;;;;;;;;;;;;;5043485;28;1255;-73
2022/08/28 02:17:21;;;;;;;;;;;;;;;;;;5048124;28;1642;-73
2022/08/28 02:19:46;;;;;;;;;;;;;;;;;;5044869;28;1281;-73
2022/08/28 02:22:12;;;;;;;;;;;;;;;;;;5044079;28;1207;-73
2022/08/28 02:24:37;;;;;;;;;;;;;;;;;;5043695;28;1602;-74
2022/08/28 02:27:03;;;;;;;;;;;;;;;;;;5042707;28;1436;-73
2022/08/28 02:29:28;;;;;;;;;;;;;;;;;;5043875;28;1956;-74
2022/08/28 02:31:53;;;;;;;;;;;;;;;;;;5048953;28;1542;-74
2022/08/28 02:34:18;;;;;;;;;;;;;;;;;;5043272;28;1288;-74
2022/08/28 02:36:44;;;;;;;;;;;;;;;;;;5025766;28;1480;-75
2022/08/28 02:39:09;;;;;;;;;;;;;;;;;;5043130;28;1558;-74
2022/08/28 02:41:34;;;;;;;;;;;;;;;;;;5041802;28;1586;-74
2022/08/28 02:44:00;;;;;;;;;;;;;;;;;;5046618;28;1698;-74
2022/08/28 02:46:25;;;;;;;;;;;;;;;;;;5043868;28;1305;-75
2022/08/28 02:48:50;;;;;;;;;;;;;;;;;;5042320;28;1953;-75
2022/08/28 02:51:15;;;;;;;;;;;;;;;;;;5048337;28;1653;-74
2022/08/28 02:53:41;;;;;;;;;;;;;;;;;;5042324;28;1279;-73
2022/08/28 02:56:07;;;;;;;;;;;;;;;;;;5040950;28;1575;-73
2022/08/28 02:58:33;;;;;;;;;;;;;;;;;;5048788;28;1012;-74
2022/08/28 03:00:59;;;;;;;;;;;;;;;;;;5047967;28;1337;-74
2022/08/28 03:03:25;;;;;;;;;;;;;;;;;;5039317;28;1546;-74
2022/08/28 03:05:50;;;;;;;;;;;;;;;;;;5042188;28;1259;-74
2022/08/28 03:08:15;;;;;;;;;;;;;;;;;;5041791;28;1889;-75
2022/08/28 03:10:40;;;;;;;;;;;;;;;;;;5042170;28;1463;-74
2022/08/28 03:13:06;;;;;;;;;;;;;;;;;;5042751;28;1619;-74
2022/08/28 03:15:31;;;;;;;;;;;;;;;;;;5043315;28;1543;-74
2022/08/28 03:17:56;;;;;;;;;;;;;;;;;;5045526;28;1495;-72
2022/08/28 03:20:21;;;;;;;;;;;;;;;;;;5041456;28;1241;-71
2022/08/28 03:25:30;;;;;;;;;;;;;;;;;;5041301;28;1273;-74
2022/08/28 03:27:55;;;;;;;;;;;;;;;;;;5047671;28;1976;-73
2022/08/28 03:30:21;;;;;;;;;;;;;;;;;;5042190;28;1297;-74
2022/08/28 03:32:47;;;;;;;;;;;;;;;;;;5045747;28;1323;-74
2022/08/28 03:35:12;;;;;;;;;;;;;;;;;;5038388;28;1662;-74
2022/08/28 03:37:37;;;;;;;;;;;;;;;;;;5041460;28;1245;-74
2022/08/28 03:40:03;;;;;;;;;;;;;;;;;;5004475;28;1083492;-74
2022/08/28 03:42:28;;;;;;;;;;;;;;;;;;5042213;28;1606;-74
2022/08/28 03:44:54;;;;;;;;;;;;;;;;;;5048453;28;1568;-74
2022/08/28 03:47:19;;;;;;;;;;;;;;;;;;5046805;28;1308;-73
2022/08/28 03:49:44;;;;;;;;;;;;;;;;;;5042417;28;1917;-74
2022/08/28 03:52:10;;;;;;;;;;;;;;;;;;5040603;28;1816;-74
2022/08/28 03:54:35;;;;;;;;;;;;;;;;;;5042632;28;1598;-74
2022/08/28 03:57:00;;;;;;;;;;;;;;;;;;5047192;28;1357;-72
2022/08/28 03:59:25;;;;;;;;;;;;;;;;;;5042405;28;1280;-72
2022/08/28 04:01:51;;;;;;;;;;;;;;;;;;5047435;28;1567;-71
2022/08/28 04:04:16;;;;;;;;;;;;;;;;;;5042568;28;1582;-71
2022/08/28 04:06:41;;;;;;;;;;;;;;;;;;5027376;28;1738;-72
2022/08/28 04:09:06;;;;;;;;;;;;;;;;;;5048228;28;1890;-73
2022/08/28 04:11:36;;;;;;;;;;;;;;;;;;5049588;28;1666;-73
2022/08/28 04:14:01;;;;;;;;;;;;;;;;;;5046893;28;1269;-75
2022/08/28 04:16:26;;;;;;;;;;;;;;;;;;5049088;28;1448;-72
2022/08/28 04:18:51;;;;;;;;;;;;;;;;;;5053990;28;1269;-72
2022/08/28 04:21:19;;;;;;;;;;;;;;;;;;5051861;28;1251;-72
2022/08/28 04:23:45;;;;;;;;;;;;;;;;;;5051691;28;1246;-72
2022/08/28 04:26:14;;;;;;;;;;;;;;;;;;5046537;28;1574;-72
2022/08/28 04:28:40;;;;;;;;;;;;;;;;;;5044044;28;1893;-75
2022/08/28 04:31:07;;;;;;;;;;;;;;;;;;5046861;28;1253;-72
2022/08/28 04:33:32;;;;;;;;;;;;;;;;;;5047139;28;1290;-72
2022/08/28 04:36:00;;;;;;;;;;;;;;;;;;5046106;28;1403;-72
2022/08/28 04:38:25;;;;;;;;;;;;;;;;;;5051041;28;1344;-72
2022/08/28 04:40:50;;;;;;;;;;;;;;;;;;5048986;28;1312;-72
2022/08/28 04:43:16;;;;;;;;;;;;;;;;;;5043458;28;1258;-72
2022/08/28 04:45:42;;;;;;;;;;;;;;;;;;5048627;28;1313;-72
2022/08/28 04:48:07;;;;;;;;;;;;;;;;;;5044849;28;1953;-72
2022/08/28 04:50:33;;;;;;;;;;;;;;;;;;5049967;28;1279;-75
2022/08/28 04:52:58;;;;;;;;;;;;;;;;;;5061518;28;853;-74
2022/08/28 04:55:23;;;;;;;;;;;;;;;;;;5058337;28;1637;-74
2022/08/28 04:57:48;;;;;;;;;;;;;;;;;;5046010;28;1056;-74
2022/08/28 05:00:14;;;;;;;;;;;;;;;;;;5045361;28;1467;-74
2022/08/28 05:02:39;;;;;;;;;;;;;;;;;;5047131;28;1314;-74
2022/08/28 05:05:05;;;;;;;;;;;;;;;;;;5041083;28;1149;-75
2022/08/28 05:07:30;;;;;;;;;;;;;;;;;;5048163;28;1582;-74
2022/08/28 05:09:55;;;;;;;;;;;;;;;;;;5041239;28;1886;-74
2022/08/28 05:12:21;;;;;;;;;;;;;;;;;;5049655;28;1626;-74
2022/08/28 05:14:47;;;;;;;;;;;;;;;;;;5041222;28;1322;-74
2022/08/28 05:17:13;;;;;;;;;;;;;;;;;;5038747;28;1550;-74
2022/08/28 05:19:38;;;;;;;;;;;;;;;;;;5040869;28;1227;-73
2022/08/28 05:22:03;;;;;;;;;;;;;;;;;;5031641;28;1634;-74
2022/08/28 05:24:29;;;;;;;;;;;;;;;;;;5040970;28;1340;-74
2022/08/28 05:26:56;;;;;;;;;;;;;;;;;;5046603;28;1599;-74
2022/08/28 05:29:21;;;;;;;;;;;;;;;;;;5041228;28;1969;-73
2022/08/28 05:31:46;;;;;;;;;;;;;;;;;;5046306;28;1602;-74
2022/08/28 05:34:12;;;;;;;;;;;;;;;;;;5041047;28;1203;-74
2022/08/28 05:36:38;;;;;;;;;;;;;;;;;;5039479;28;1582;-75
2022/08/28 05:39:04;;;;;;;;;;;;;;;;;;5046211;28;1383;-76
2022/08/28 05:41:30;;;;;;;;;;;;;;;;;;5039473;28;1219;-74
2022/08/28 05:43:56;;;;;;;;;;;;;;;;;;5042439;28;1282;-70
2022/08/28 05:46:27;;;;;;;;;;;;;;;;;;5040533;28;1332;-72
2022/08/28 05:48:52;;;;;;;;;;;;;;;;;;5032359;28;1902;-71
2022/08/28 05:51:25;;;;;;;;;;;;;;;;;;5040752;28;1223;-71
2022/08/28 05:53:51;;;;;;;;;;;;;;;;;;5040352;28;803;-71
2022/08/28 05:56:17;;;;;;;;;;;;;;;;;;5040514;28;1200;-72
2022/08/28 05:58:43;;;;;;;;;;;;;;;;;;5040767;28;997;-71
2022/08/28 06:01:18;;;;;;;;;;;;;;;;;;5040802;28;1375;-71
2022/08/28 06:03:44;;;;;;;;;;;;;;;;;;5039292;28;1420;-71
2022/08/28 06:06:10;;;;;;;;;;;;;;;;;;5039320;28;1345;-72
2022/08/28 06:08:36;;;;;;;;;;;;;;;;;;5040544;28;1893;-71
2022/08/28 06:11:02;;;;;;;;;;;;;;;;;;5040058;28;803;-71
2022/08/28 06:13:28;;;;;;;;;;;;;;;;;;5039618;28;1938;-71
2022/08/28 06:15:53;;;;;;;;;;;;;;;;;;5040425;28;1369;-72
2022/08/28 06:18:18;;;;;;;;;;;;;;;;;;5040213;28;1507;-72
2022/08/28 06:20:44;;;;;;;;;;;;;;;;;;5040365;28;810;-72
2022/08/28 06:23:11;;;;;;;;;;;;;;;;;;5040635;28;779;-72
2022/08/28 06:25:40;;;;;;;;;;;;;;;;;;5040022;28;1176;-72
2022/08/28 06:28:06;;;;;;;;;;;;;;;;;;5039794;28;1969;-72
2022/08/28 06:30:33;;;;;;;;;;;;;;;;;;5040413;28;881;-72
2022/08/28 06:32:59;;;;;;;;;;;;;;;;;;5036650;28;1593;-72
2022/08/28 06:35:24;;;;;;;;;;;;;;;;;;5035154;28;1330;-73
2022/08/28 06:37:49;;;;;;;;;;;;;;;;;;5043790;28;914;-72
2022/08/28 06:40:14;;;;;;;;;;;;;;;;;;5046526;28;1214;-72
2022/08/28 06:42:40;;;;;;;;;;;;;;;;;;5062133;28;1210;-72
2022/08/28 06:45:05;;;;;;;;;;;;;;;;;;5042583;28;1342;-71
2022/08/28 06:47:30;;;;;;;;;;;;;;;;;;5048079;28;1422;-71
2022/08/28 06:49:55;;;;;;;;;;;;;;;;;;5043194;28;1903;-71
2022/08/28 06:52:21;;;;;;;;;;;;;;;;;;5043510;28;2015;-69
2022/08/28 06:54:46;;;;;;;;;;;;;;;;;;5034058;28;2207;-73
2022/08/28 06:57:11;;;;;;;;;;;;;;;;;;5051507;28;1862;-72
2022/08/28 06:59:36;;;;;;;;;;;;;;;;;;5048311;28;1313;-73
2022/08/28 07:02:03;;;;;;;;;;;;;;;;;;5045498;28;1356;-71
2022/08/28 07:04:29;;;;;;;;;;;;;;;;;;5045176;28;1334;-71
2022/08/28 07:06:54;;;;;;;;;;;;;;;;;;5050115;28;1243;-71
2022/08/28 07:09:19;;;;;;;;;;;;;;;;;;5042941;28;1898;-71
2022/08/28 07:11:47;;;;;;;;;;;;;;;;;;5043449;28;812;-71
2022/08/28 07:14:13;;;;;;;;;;;;;;;;;;5043141;28;910;-71
2022/08/28 07:16:38;;;;;;;;;;;;;;;;;;5041048;28;1629;-71
2022/08/28 07:19:04;;;;;;;;;;;;;;;;;;5042388;28;1168;-71
2022/08/28 07:21:30;;;;;;;;;;;;;;;;;;5042762;28;842;-72
2022/08/28 07:23:55;;;;;;;;;;;;;;;;;;5025360;28;1474;-72
2022/08/28 07:26:22;;;;;;;;;;;;;;;;;;5042488;28;1192;-73
2022/08/28 07:28:47;;;;;;;;;;;;;;;;;;5042964;28;1902;-73
2022/08/28 07:31:17;;;;;;;;;;;;;;;;;;5042509;28;1531;-72
2022/08/28 07:33:42;;;;;;;;;;;;;;;;;;5024662;28;1630;-71
2022/08/28 07:36:15;;;;;;;;;;;;;;;;;;5033666;28;1415;-72
2022/08/28 07:38:40;;;;;;;;;;;;;;;;;;5022676;28;1052;-72
2022/08/28 07:41:13;;;;;;;;;;;;;;;;;;5022971;28;929;-72
2022/08/28 07:46:22;;;;;;;;;;;;;;;;;;5024215;28;1467;-73
2022/08/28 07:48:48;;;;;;;;;;;;;;;;;;5041992;28;1969;-72
2022/08/28 07:51:13;;;;;;;;;;;;;;;;;;5042482;28;1299;-72
2022/08/28 07:53:38;;;;;;;;;;;;;;;;;;5041652;28;1442;-72
2022/08/28 07:56:04;;;;;;;;;;;;;;;;;;5042149;28;1212;-72
2022/08/28 07:58:29;;;;;;;;;;;;;;;;;;5042499;28;965;-72
2022/08/28 08:00:54;;;;;;;;;;;;;;;;;;5042343;28;857;-72
2022/08/28 08:03:20;;;;;;;;;;;;;;;;;;5042264;28;1503;-73
2022/08/28 08:05:56;;;;;;;;;;;;;;;;;;5053910;28;1343;-73
2022/08/28 08:08:21;;;;;;;;;;;;;;;;;;5055826;28;1964;-72
2022/08/28 08:10:56;;;;;;;;;;;;;;;;;;5045045;28;1191;-72
2022/08/28 08:13:21;;;;;;;;;;;;;;;;;;5042260;28;874;-73
2022/08/28 08:15:46;;;;;;;;;;;;;;;;;;5042303;28;1271;-73
2022/08/28 08:18:12;;;;;;;;;;;;;;;;;;5041708;28;1570;-74
2022/08/28 08:20:37;;;;;;;;;;;;;;;;;;5041750;28;1554;-72
2022/08/28 08:23:02;;;;;;;;;;;;;;;;;;5041866;28;1144;-74
2022/08/28 08:25:28;;;;;;;;;;;;;;;;;;5042007;28;1180;-74
2022/08/28 08:27:53;;;;;;;;;;;;;;;;;;5041285;28;902;-74
2022/08/28 08:30:18;;;;;;;;;;;;;;;;;;5041859;28;1874;-74
2022/08/28 08:32:43;;;;;;;;;;;;;;;;;;5041864;28;1578;-73
2022/08/28 08:35:11;;;;;;;;;;;;;;;;;;5023764;28;1276;-73
2022/08/28 08:37:37;;;;;;;;;;;;;;;;;;5041840;28;1538;-73
2022/08/28 08:40:02;;;;;;;;;;;;;;;;;;5041158;28;1542;-73
2022/08/28 08:42:31;;;;;;;;;;;;;;;;;;5041723;28;1148;-73
2022/08/28 08:44:58;;;;;;;;;;;;;;;;;;5040485;28;1498;-73
2022/08/28 08:47:39;;;;;;;;;;;;;;;;;;5033338;28;1534;-72
2022/08/28 08:50:06;;;;;;;;;;;;;;;;;;5037195;28;1890;-72
2022/08/28 08:52:58;;;;;;;;;;;;;;;;;;5039437;28;1483;-73
2022/08/28 08:55:25;;;;;;;;;;;;;;;;;;5003910;28;1584;-73
2022/08/28 08:58:09;;;;;;;;;;;;;;;;;;5033190;28;1755;-73
2022/08/28 09:00:54;;;;;;;;;;;;;;;;;;5032586;28;1769;-74
2022/08/28 09:03:21;;;;;;;;;;;;;;;;;;5029969;28;1378;-74
2022/08/28 09:05:50;;;;;;;;;;;;;;;;;;5021638;28;1205;-74
2022/08/28 09:08:24;;;;;;;;;;;;;;;;;;5035448;28;1963;-75
2022/08/28 09:10:53;;;;;;;;;;;;;;;;;;5041405;28;842;-74
2022/08/28 09:13:29;;;;;;;;;;;;;;;;;;5041291;28;834;-74
2022/08/28 09:15:55;;;;;;;;;;;;;;;;;;5040282;28;1649;-74
2022/08/28 09:18:24;;;;;;;;;;;;;;;;;;5036763;28;1519;-74
2022/08/28 09:20:51;;;;;;;;;;;;;;;;;;5032642;28;1772;-74
2022/08/28 09:23:16;;;;;;;;;;;;;;;;;;5034540;28;1752;-74
2022/08/28 09:25:50;;;;;;;;;;;;;;;;;;5031209;28;1815;-74
2022/08/28 09:28:27;;;;;;;;;;;;;;;;;;5031986;28;1901;-74
2022/08/28 09:31:02;;;;;;;;;;;;;;;;;;5033721;28;1568;-74
2022/08/28 09:33:33;;;;;;;;;;;;;;;;;;5037507;28;1524;-74
2022/08/28 09:36:18;;;;;;;;;;;;;;;;;;5032372;28;1530;-74
2022/08/28 09:38:43;;;;;;;;;;;;;;;;;;5032047;28;1957;-74
2022/08/28 09:43:54;;;;;;;;;;;;;;;;;;5038812;28;1533;-73
2022/08/28 09:46:20;;;;;;;;;;;;;;;;;;5029995;28;1437;-73
2022/08/28 09:48:47;;;;;;;;;;;;;;;;;;5029033;28;1945;-74
2022/08/28 09:51:25;;;;;;;;;;;;;;;;;;5040163;28;898;-74
2022/08/28 09:53:50;;;;;;;;;;;;;;;;;;5040785;28;886;-73
2022/08/28 09:56:16;;;;;;;;;;;;;;;;;;5040515;28;1208;-73
2022/08/28 09:58:50;;;;;;;;;;;;;;;;;;5040538;28;1526;-74
2022/08/28 10:01:18;;;;;;;;;;;;;;;;;;5040454;28;1530;-73
2022/08/28 10:03:52;;;;;;;;;;;;;;;;;;5032202;28;1572;-74
2022/08/28 10:06:25;;;;;;;;;;;;;;;;;;5041315;28;1204;-73
2022/08/28 10:09:16;;;;;;;;;;;;;;;;;;5050472;28;1898;-73
2022/08/28 10:12:00;;;;;;;;;;;;;;;;;;5020863;28;1105;-74
2022/08/28 10:14:43;;;;;;;;;;;;;;;;;;5043880;28;1188;-74
2022/08/28 10:17:08;;;;;;;;;;;;;;;;;;5043660;28;1605;-74
2022/08/28 10:19:38;;;;;;;;;;;;;;;;;;5044104;28;878;-74
2022/08/28 10:22:03;;;;;;;;;;;;;;;;;;5043653;28;1522;-74
2022/08/28 10:24:40;;;;;;;;;;;;;;;;;;5033351;28;1240;-73
2022/08/28 10:27:24;;;;;;;;;;;;;;;;;;5025861;28;1581;-74
2022/08/28 10:29:52;;;;;;;;;;;;;;;;;;5043864;28;1910;-74
2022/08/28 10:32:17;;;;;;;;;;;;;;;;;;5040323;28;1652;-74
2022/08/28 10:35:07;;;;;;;;;;;;;;;;;;5037663;28;1212;-74
2022/08/28 10:37:38;;;;;;;;;;;;;;;;;;5043958;28;858;-74
2022/08/28 10:40:07;;;;;;;;;;;;;;;;;;5042345;28;1437;-74
2022/08/28 10:42:42;;;;;;;;;;;;;;;;;;5042637;28;1893;-73
2022/08/28 10:45:07;;;;;;;;;;;;;;;;;;5043247;28;1294;-74
2022/08/28 10:47:34;;;;;;;;;;;;;;;;;;5038034;28;1669;-73
2022/08/28 10:50:03;;;;;;;;;;;;;;;;;;5043452;28;1902;-74
2022/08/28 10:52:34;;;;;;;;;;;;;;;;;;5043267;28;1498;-74
2022/08/28 10:55:18;;;;;;;;;;;;;;;;;;5042848;28;1606;-74
2022/08/28 10:57:43;;;;;;;;;;;;;;;;;;5043256;28;1029;-74
2022/08/28 11:00:11;;;;;;;;;;;;;;;;;;5042148;28;1515;-74
2022/08/28 11:02:38;;;;;;;;;;;;;;;;;;5043051;28;1440;-74
2022/08/28 11:05:04;;;;;;;;;;;;;;;;;;5043010;28;1185;-74
2022/08/28 11:07:31;;;;;;;;;;;;;;;;;;5043453;28;850;-72
2022/08/28 11:10:14;;;;;;;;;;;;;;;;;;5043153;28;1965;-72
2022/08/28 11:12:41;;;;;;;;;;;;;;;;;;5043287;28;1047;-72
2022/08/28 11:15:39;;;;;;;;;;;;;;;;;;5024725;28;1605;-72
2022/08/28 11:18:25;;;;;;;;;;;;;;;;;;4982019;28;1376;-72
2022/08/28 11:21:08;;;;;;;;;;;;;;;;;;5043069;28;1132;-72
2022/08/28 11:23:37;;;;;;;;;;;;;;;;;;5043093;28;929;-71
2022/08/28 11:26:05;;;;;;;;;;;;;;;;;;5042794;28;1176;-72
2022/08/28 11:28:33;;;;;;;;;;;;;;;;;;5042619;28;1961;-72
2022/08/28 11:31:04;;;;;;;;;;;;;;;;;;5042670;28;1637;-72
2022/08/28 11:33:47;;;;;;;;;;;;;;;;;;5041666;28;1546;-71
2022/08/28 11:36:18;;;;;;;;;;;;;;;;;;5042758;28;1267;-72
2022/08/28 11:38:43;;;;;;;;;;;;;;;;;;5036439;28;1594;-72
2022/08/28 11:41:14;;;;;;;;;;;;;;;;;;5042928;28;1160;-72
2022/08/28 11:43:43;;;;;;;;;;;;;;;;;;5042609;28;1004;-72
2022/08/28 11:46:11;;;;;;;;;;;;;;;;;;5042475;28;1188;-72
2022/08/28 11:48:46;;;;;;;;;;;;;;;;;;5042618;28;1894;-72
2022/08/28 11:51:17;;;;;;;;;;;;;;;;;;5042008;28;985;-72
2022/08/28 11:53:45;;;;;;;;;;;;;;;;;;5042630;28;996;-72
2022/08/28 11:56:13;;;;;;;;;;;;;;;;;;5015426;28;1515;-72
2022/08/28 11:58:38;;;;;;;;;;;;;;;;;;5042646;28;974;-72
2022/08/28 12:01:05;;;;;;;;;;;;;;;;;;5042395;28;819;-72
2022/08/28 12:03:37;;;;;;;;;;;;;;;;;;5042414;28;1507;-71
2022/08/28 12:06:03;;;;;;;;;;;;;;;;;;5041923;28;1145;-72
2022/08/28 12:08:43;;;;;;;;;;;;;;;;;;5041811;28;1957;-71
2022/08/28 12:11:08;;;;;;;;;;;;;;;;;;5042321;28;849;-72
2022/08/28 12:13:47;;;;;;;;;;;;;;;;;;5042274;28;806;-72
2022/08/28 12:16:13;;;;;;;;;;;;;;;;;;5060364;28;1247;-72
2022/08/28 12:18:39;;;;;;;;;;;;;;;;;;5041619;28;1391;-72
2022/08/28 12:21:05;;;;;;;;;;;;;;;;;;5042108;28;1084;-72
2022/08/28 12:23:54;;;;;;;;;;;;;;;;;;5042153;28;973;-72
2022/08/28 12:26:31;;;;;;;;;;;;;;;;;;5041207;28;1342;-72
2022/08/28 12:28:56;;;;;;;;;;;;;;;;;;5041852;28;1959;-73
2022/08/28 12:32:10;;;;;;;;;;;;;;;;;;5040835;28;1546;-72
2022/08/28 12:34:17;;;;;;;;;;;;;;;;;;5021788;28;999;-72
2022/08/28 12:36:42;;;;;;;;;;;;;;;;;;5034188;28;1120;-72
2022/08/28 12:39:13;;;;;;;;;;;;;;;;;;5035432;28;1734;-72
2022/08/28 12:41:42;;;;;;;;;;;;;;;;;;5034853;28;1689;-72
2022/08/28 12:44:11;;;;;;;;;;;;;;;;;;5035098;28;1674;-72
2022/08/28 12:46:39;;;;;;;;;;;;;;;;;;5040286;28;1240;-71
2022/08/28 12:49:24;;;;;;;;;;;;;;;;;;5026874;28;1898;-72
2022/08/28 12:51:49;;;;;;;;;;;;;;;;;;5040246;28;1420;-72
2022/08/28 12:54:16;;;;;;;;;;;;;;;;;;5031579;28;1412;-73
2022/08/28 12:56:42;;;;;;;;;;;;;;;;;;5033290;28;1208;-72
2022/08/28 12:59:23;;;;;;;;;;;;;;;;;;5034876;28;1219;-73
2022/08/28 13:01:48;;;;;;;;;;;;;;;;;;5033784;28;1480;-73
2022/08/28 13:04:32;;;;;;;;;;;;;;;;;;5027752;28;1199;-72
2022/08/28 13:07:05;;;;;;;;;;;;;;;;;;5032447;28;1236;-72
2022/08/28 13:09:30;;;;;;;;;;;;;;;;;;5034164;28;1902;-73
2022/08/28 13:11:55;;;;;;;;;;;;;;;;;;5016440;28;1431;-71
2022/08/28 13:14:40;;;;;;;;;;;;;;;;;;5033155;28;1330;-71
2022/08/28 13:17:06;;;;;;;;;;;;;;;;;;5035062;28;1558;-71
2022/08/28 13:19:32;;;;;;;;;;;;;;;;;;5016704;28;1263;-70
2022/08/28 13:22:00;;;;;;;;;;;;;;;;;;5033657;28;1381;-71
2022/08/28 13:24:26;;;;;;;;;;;;;;;;;;5033254;28;1301;-71
2022/08/28 13:27:03;;;;;;;;;;;;;;;;;;5033527;28;1290;-72
2022/08/28 13:29:29;;;;;;;;;;;;;;;;;;5032396;28;1957;-72
2022/08/28 13:32:02;;;;;;;;;;;;;;;;;;5032903;28;1914;-73
2022/08/28 13:34:28;;;;;;;;;;;;;;;;;;5032589;28;1267;-73
2022/08/28 13:36:56;;;;;;;;;;;;;;;;;;5033008;28;1286;-73
2022/08/28 13:39:22;;;;;;;;;;;;;;;;;;5026010;28;1334;-74
2022/08/28 13:41:50;;;;;;;;;;;;;;;;;;5027895;28;1246;-74
2022/08/28 13:44:32;;;;;;;;;;;;;;;;;;5030428;28;1275;-73
2022/08/28 13:46:58;;;;;;;;;;;;;;;;;;5038844;28;1295;-74
2022/08/28 13:49:26;;;;;;;;;;;;;;;;;;5033049;28;1957;-73
2022/08/28 13:51:52;;;;;;;;;;;;;;;;;;5037988;28;1116;-73
2022/08/28 13:54:17;;;;;;;;;;;;;;;;;;5036043;28;1310;-73
2022/08/28 13:56:42;;;;;;;;;;;;;;;;;;5036362;28;1165;-73
2022/08/28 13:59:07;;;;;;;;;;;;;;;;;;5037149;28;1263;-74
2022/08/28 14:04:17;;;;;;;;;;;;;;;;;;5039275;28;1505;-74
2022/08/28 14:06:42;;;;;;;;;;;;;;;;;;5037147;28;1411;-73
2022/08/28 14:09:11;;;;;;;;;;;;;;;;;;5031214;28;1951;-73
2022/08/28 14:11:37;;;;;;;;;;;;;;;;;;5028977;28;1168;-74
2022/08/28 14:14:02;;;;;;;;;;;;;;;;;;5029750;28;1259;-73
2022/08/28 14:16:27;;;;;;;;;;;;;;;;;;5032265;28;1385;-73
2022/08/28 14:18:53;;;;;;;;;;;;;;;;;;5035930;28;1714;-73
2022/08/28 14:21:18;;;;;;;;;;;;;;;;;;5036415;28;1282;-73
2022/08/28 14:23:43;;;;;;;;;;;;;;;;;;5036255;28;1220;-73
2022/08/28 14:26:09;;;;;;;;;;;;;;;;;;5029516;28;1267;-73
2022/08/28 14:28:34;;;;;;;;;;;;;;;;;;5029761;28;1897;-73
2022/08/28 14:30:59;;;;;;;;;;;;;;;;;;5030780;28;1346;-73
2022/08/28 14:33:24;;;;;;;;;;;;;;;;;;5037855;28;1338;-73
2022/08/28 14:35:50;;;;;;;;;;;;;;;;;;5014851;28;1316;-73
2022/08/28 14:38:15;;;;;;;;;;;;;;;;;;5035762;28;1240;-73
2022/08/28 14:40:41;;;;;;;;;;;;;;;;;;5036927;28;1287;-73
2022/08/28 14:43:08;;;;;;;;;;;;;;;;;;5029087;28;1220;-73
2022/08/28 14:45:40;;;;;;;;;;;;;;;;;;5015785;28;1411;-73
2022/08/28 14:48:05;;;;;;;;;;;;;;;;;;5038025;28;1477;-73
2022/08/28 14:50:30;;;;;;;;;;;;;;;;;;5035738;28;1902;-73
2022/08/28 14:52:56;;;;;;;;;;;;;;;;;;5017459;28;1255;-74
2022/08/28 14:55:21;;;;;;;;;;;;;;;;;;5034851;28;1251;-74
2022/08/28 14:57:46;;;;;;;;;;;;;;;;;;5032979;28;1641;-73
2022/08/28 15:00:11;;;;;;;;;;;;;;;;;;5035982;28;1259;-73
2022/08/28 15:02:37;;;;;;;;;;;;;;;;;;5032370;28;1337;-74
2022/08/28 15:05:02;;;;;;;;;;;;;;;;;;5034923;28;1354;-74
2022/08/28 15:07:28;;;;;;;;;;;;;;;;;;5035614;28;1719;-73
2022/08/28 15:09:53;;;;;;;;;;;;;;;;;;5040194;28;1911;-74
2022/08/28 15:12:18;;;;;;;;;;;;;;;;;;5037593;28;1506;-71
2022/08/28 15:14:44;;;;;;;;;;;;;;;;;;5040634;28;1779;-75
2022/08/28 15:17:09;;;;;;;;;;;;;;;;;;5049798;28;1300;-72
2022/08/28 15:19:34;;;;;;;;;;;;;;;;;;5042499;28;1161;-73
2022/08/28 15:21:59;;;;;;;;;;;;;;;;;;5050479;28;1670;-73
2022/08/28 15:24:27;;;;;;;;;;;;;;;;;;5042498;28;1346;-73
2022/08/28 15:26:52;;;;;;;;;;;;;;;;;;5042782;28;1543;-74
2022/08/28 15:29:17;;;;;;;;;;;;;;;;;;5042820;28;1981;-74
2022/08/28 15:31:44;;;;;;;;;;;;;;;;;;5042930;28;1574;-73
2022/08/28 15:34:11;;;;;;;;;;;;;;;;;;5042936;28;905;-74
2022/08/28 15:36:37;;;;;;;;;;;;;;;;;;5042140;28;1554;-73
2022/08/28 15:41:48;;;;;;;;;;;;;;;;;;5042916;28;615;-73
2022/08/28 15:44:13;;;;;;;;;;;;;;;;;;5042648;28;842;-74
2022/08/28 15:46:39;;;;;;;;;;;;;;;;;;5042019;28;1597;-73
2022/08/28 15:49:05;;;;;;;;;;;;;;;;;;5042394;28;1909;-73
2022/08/28 15:51:31;;;;;;;;;;;;;;;;;;5042596;28;2009;-73
2022/08/28 15:53:57;;;;;;;;;;;;;;;;;;5042657;28;861;-73
2022/08/28 15:56:23;;;;;;;;;;;;;;;;;;5041949;28;1566;-73
2022/08/28 15:58:48;;;;;;;;;;;;;;;;;;5041824;28;1566;-74
2022/08/28 16:01:14;;;;;;;;;;;;;;;;;;5042269;28;1586;-73
2022/08/28 16:03:39;;;;;;;;;;;;;;;;;;5042046;28;1653;-74
2022/08/28 16:06:12;;;;;;;;;;;;;;;;;;5041057;28;1292;-74
2022/08/28 16:08:38;;;;;;;;;;;;;;;;;;5024168;28;1995;-73
2022/08/28 16:11:03;;;;;;;;;;;;;;;;;;5042354;28;889;-73
2022/08/28 16:13:28;;;;;;;;;;;;;;;;;;5042348;28;1084;-73
2022/08/28 16:15:54;;;;;;;;;;;;;;;;;;5041977;28;1302;-73
2022/08/28 16:18:19;;;;;;;;;;;;;;;;;;5042144;28;1566;-73
2022/08/28 16:20:44;;;;;;;;;;;;;;;;;;5042223;28;834;-73
2022/08/28 16:23:10;;;;;;;;;;;;;;;;;;5042244;28;830;-73
2022/08/28 16:25:36;;;;;;;;;;;;;;;;;;5040974;28;1518;-73
2022/08/28 16:28:03;;;;;;;;;;;;;;;;;;5042142;28;799;-73
2022/08/28 16:30:28;;;;;;;;;;;;;;;;;;5041565;28;1957;-73
2022/08/28 16:32:53;;;;;;;;;;;;;;;;;;5024008;28;1574;-73
2022/08/28 16:35:18;;;;;;;;;;;;;;;;;;5041560;28;1304;-73
2022/08/28 16:37:44;;;;;;;;;;;;;;;;;;5041822;28;795;-73
2022/08/28 16:40:10;;;;;;;;;;;;;;;;;;5041984;28;951;-73
2022/08/28 16:42:35;;;;;;;;;;;;;;;;;;5041753;28;901;-73
2022/08/28 16:45:02;;;;;;;;;;;;;;;;;;5023781;28;1286;-73
2022/08/28 16:47:27;;;;;;;;;;;;;;;;;;5041459;28;1605;-74
2022/08/28 16:49:55;;;;;;;;;;;;;;;;;;5041695;28;1893;-74
2022/08/28 16:52:21;;;;;;;;;;;;;;;;;;5041752;28;901;-73
2022/08/28 16:54:47;;;;;;;;;;;;;;;;;;5041268;28;1319;-73
2022/08/28 16:57:12;;;;;;;;;;;;;;;;;;5041715;28;823;-74
2022/08/28 16:59:37;;;;;;;;;;;;;;;;;;5041423;28;870;-74
2022/08/28 17:02:02;;;;;;;;;;;;;;;;;;5041456;28;1570;-74
2022/08/28 17:04:27;;;;;;;;;;;;;;;;;;5041169;28;1102;-74
2022/08/28 17:06:53;;;;;;;;;;;;;;;;;;5041117;28;1511;-74
2022/08/28 17:09:18;;;;;;;;;;;;;;;;;;5041583;28;1902;-73
2022/08/28 17:11:43;;;;;;;;;;;;;;;;;;5041275;28;782;-73
2022/08/28 17:14:10;;;;;;;;;;;;;;;;;;5041558;28;835;-73
2022/08/28 17:16:35;;;;;;;;;;;;;;;;;;5040402;28;1589;-73
2022/08/28 17:19:01;;;;;;;;;;;;;;;;;;5041370;28;1025;-74
2022/08/28 17:24:11;;;;;;;;;;;;;;;;;;5031896;28;1668;-72
2022/08/28 17:26:36;;;;;;;;;;;;;;;;;;5040885;28;1182;-72
2022/08/28 17:29:02;;;;;;;;;;;;;;;;;;5040944;28;1890;-71
2022/08/28 17:31:27;;;;;;;;;;;;;;;;;;5040055;28;1352;-72